KDAN

Danville Regional Airport

Danville, Virginia, USA
METAR KDAN 201514Z AUTO 00000KT 10SM BKN004 OVC017 13/13 A3046 RMK AO2 T01280128 $
Observed Flight Rules
Feb-20 @ 15:14 UTC (2 hours ago) Instrument Flight Rules
Wind Visibility Clouds
Calm 10 miles
  • Broken at 400' AGL
  • Overcast at 1,700' AGL
Temperatures Readings
Current 13°C / 55°F
Dewpoint 13°C / 55°F
Humidity 100%
Altimeter 30.46" Hg
Pressure 1031 hPa
Elevation 175
METAR KDAN 201514Z AUTO 00000KT 10SM BKN004 OVC017 13/13 A3046 RMK AO2 T01280128 $
Observed Flight Rules
Feb-20 @ 15:14 UTC
(2 hours ago)
LIFR
Wind Visibility
Calm 10 miles
Clouds
  • Broken at 400' AGL
  • Overcast at 1,700' AGL
Temperature Dewpoint
13°C / 55°F 13°C / 55°F
Humidity Altimeter Pressure
100% 30.46" Hg 1031 hPa